sensor_id;sensor_type;location;lat;lon;timestamp;pressure;altitude;pressure_sealevel;temperature;humidity
26839;BME280;40088;51.214;6.786;2023-03-03T00:06:21;101949.44;;;16.68;42.35
26839;BME280;40088;51.214;6.786;2023-03-03T00:16:35;101954.09;;;16.67;41.96
26839;BME280;40088;51.214;6.786;2023-03-03T00:26:45;101972.31;;;16.68;41.93
26839;BME280;40088;51.214;6.786;2023-03-03T00:36:57;101966.97;;;16.67;42.15
26839;BME280;40088;51.214;6.786;2023-03-03T01:07:28;101991.94;;;16.65;41.77
26839;BME280;40088;51.214;6.786;2023-03-03T01:28:08;101995.72;;;16.64;42.06
26839;BME280;40088;51.214;6.786;2023-03-03T01:38:26;102009.47;;;16.64;42.15
26839;BME280;40088;51.214;6.786;2023-03-03T01:48:52;102006.72;;;16.64;42.07
26839;BME280;40088;51.214;6.786;2023-03-03T02:09:28;101991.06;;;16.65;42.04
26839;BME280;40088;51.214;6.786;2023-03-03T02:30:20;102006.72;;;16.64;42.09
26839;BME280;40088;51.214;6.786;2023-03-03T02:40:27;102009.47;;;16.64;42.10
26839;BME280;40088;51.214;6.786;2023-03-03T02:50:46;102004.09;;;16.63;41.90
26839;BME280;40088;51.214;6.786;2023-03-03T03:00:56;102007.72;;;16.63;41.95
26839;BME280;40088;51.214;6.786;2023-03-03T03:11:18;102015.97;;;16.63;41.93
26839;BME280;40088;51.214;6.786;2023-03-03T03:21:39;102021.66;;;16.62;42.00
26839;BME280;40088;51.214;6.786;2023-03-03T03:31:49;102034.38;;;16.63;42.04
26839;BME280;40088;51.214;6.786;2023-03-03T03:42:00;102028.00;;;16.62;42.00
26839;BME280;40088;51.214;6.786;2023-03-03T03:52:10;102021.66;;;16.62;42.01
26839;BME280;40088;51.214;6.786;2023-03-03T04:02:18;102037.13;;;16.63;42.09
26839;BME280;40088;51.214;6.786;2023-03-03T04:12:31;102026.97;;;16.63;42.17
26839;BME280;40088;51.214;6.786;2023-03-03T04:22:41;102036.09;;;16.64;41.93
26839;BME280;40088;51.214;6.786;2023-03-03T04:43:08;102039.88;;;16.63;42.19
26839;BME280;40088;51.214;6.786;2023-03-03T05:04:06;102053.66;;;16.63;42.23
26839;BME280;40088;51.214;6.786;2023-03-03T05:14:20;102050.91;;;16.63;41.93
26839;BME280;40088;51.214;6.786;2023-03-03T05:24:57;102055.53;;;16.62;42.12
26839;BME280;40088;51.214;6.786;2023-03-03T05:45:19;102064.66;;;16.63;42.02
26839;BME280;40088;51.214;6.786;2023-03-03T05:55:21;102060.00;;;16.63;42.18
26839;BME280;40088;51.214;6.786;2023-03-03T06:05:26;102065.50;;;16.63;42.03
26839;BME280;40088;51.214;6.786;2023-03-03T06:15:30;102082.03;;;16.63;42.09
26839;BME280;40088;51.214;6.786;2023-03-03T06:25:43;102101.28;;;16.63;42.05
26839;BME280;40088;51.214;6.786;2023-03-03T06:35:54;102117.81;;;16.63;42.15
26839;BME280;40088;51.214;6.786;2023-03-03T06:46:04;102127.94;;;16.63;42.13
26839;BME280;40088;51.214;6.786;2023-03-03T06:56:10;102134.31;;;16.63;42.16
26839;BME280;40088;51.214;6.786;2023-03-03T07:06:21;102144.47;;;16.63;41.99
26839;BME280;40088;51.214;6.786;2023-03-03T07:16:26;102140.84;;;16.62;42.00
26839;BME280;40088;51.214;6.786;2023-03-03T07:26:31;102147.22;;;16.63;42.16
26839;BME280;40088;51.214;6.786;2023-03-03T07:36:35;102153.59;;;16.63;42.09
26839;BME280;40088;51.214;6.786;2023-03-03T07:46:43;102168.38;;;16.62;41.95
26839;BME280;40088;51.214;6.786;2023-03-03T07:56:46;102179.22;;;16.64;42.00
26839;BME280;40088;51.214;6.786;2023-03-03T08:06:53;102188.50;;;16.63;42.16
26839;BME280;40088;51.214;6.786;2023-03-03T08:16:58;102203.13;;;16.63;42.04
26839;BME280;40088;51.214;6.786;2023-03-03T08:27:05;102218.78;;;16.63;42.07
26839;BME280;40088;51.214;6.786;2023-03-03T08:37:13;102223.41;;;16.62;42.04
26839;BME280;40088;51.214;6.786;2023-03-03T08:47:19;102232.53;;;16.63;42.15
26839;BME280;40088;51.214;6.786;2023-03-03T08:57:27;102227.19;;;16.61;42.08
26839;BME280;40088;51.214;6.786;2023-03-03T09:07:29;102236.31;;;16.62;41.93
26839;BME280;40088;51.214;6.786;2023-03-03T09:17:34;102246.28;;;16.63;41.99
26839;BME280;40088;51.214;6.786;2023-03-03T09:27:37;102250.94;;;16.62;42.03
26839;BME280;40088;51.214;6.786;2023-03-03T09:37:44;102265.56;;;16.63;41.97
26839;BME280;40088;51.214;6.786;2023-03-03T09:58:33;102276.72;;;16.61;42.13
26839;BME280;40088;51.214;6.786;2023-03-03T10:19:17;102286.72;;;16.62;42.04
26839;BME280;40088;51.214;6.786;2023-03-03T10:29:31;102282.25;;;16.61;41.95
26839;BME280;40088;51.214;6.786;2023-03-03T11:00:25;102289.47;;;16.62;41.82
26839;BME280;40088;51.214;6.786;2023-03-03T12:01:54;102253.69;;;16.62;42.06
26839;BME280;40088;51.214;6.786;2023-03-03T12:22:37;102242.69;;;16.62;41.97
26839;BME280;40088;51.214;6.786;2023-03-03T12:43:26;102228.91;;;16.62;42.08
26839;BME280;40088;51.214;6.786;2023-03-03T13:14:42;102230.63;;;16.63;42.00
26839;BME280;40088;51.214;6.786;2023-03-03T13:35:44;102225.13;;;16.63;42.09
26839;BME280;40088;51.214;6.786;2023-03-03T13:46:10;102218.78;;;16.63;42.03
26839;BME280;40088;51.214;6.786;2023-03-03T13:56:34;102213.13;;;16.64;42.25
26839;BME280;40088;51.214;6.786;2023-03-03T14:06:52;102205.00;;;16.63;42.19
26839;BME280;40088;51.214;6.786;2023-03-03T14:17:14;102203.97;;;16.64;42.10
26839;BME280;40088;51.214;6.786;2023-03-03T14:27:25;102202.13;;;16.64;42.17
26839;BME280;40088;51.214;6.786;2023-03-03T14:37:45;102186.59;;;16.63;42.18
26839;BME280;40088;51.214;6.786;2023-03-03T14:47:58;102174.59;;;16.64;42.25
26839;BME280;40088;51.214;6.786;2023-03-03T14:58:37;102166.34;;;16.64;42.13
26839;BME280;40088;51.214;6.786;2023-03-03T15:08:45;102154.44;;;16.64;42.37
26839;BME280;40088;51.214;6.786;2023-03-03T15:29:53;102138.81;;;16.64;42.24
26839;BME280;40088;51.214;6.786;2023-03-03T15:40:45;102134.31;;;16.63;42.40
26839;BME280;40088;51.214;6.786;2023-03-03T16:12:00;102123.16;;;16.65;42.35
